首页
METAR-TAF:

METAR-TAF

机场 :

马六甲国际机场

马六甲, 马来西亚

纬度: 02-16N, 经度: 102-15E, 海拔: 11米

当前天气观测

该预报发布于55分钟前的20:00 UTC
静风
温度 24°C
湿度 94%
气压 1011 hPa
能见度10公里或以上
少量云层高于3000英尺
多云层高于28000英尺

METAR: WMKM 132000Z 00000KT 9999 FEW030 BKN280 24/23 Q1011

时间: 04:55 (20:55 UTC)

预报

该预报发布于3小时和55分钟前的17:00 UTC
预报有效从13日的 18点(UTC)到 14日的 18点(UTC)
风速5节,风向东北
能见度10公里或以上
少量云层高于2000英尺
成为
从 14日的 00点(UTC)到 14日的 02点(UTC)
风速5节,风向西转西南
成为
从 14日的 08点(UTC)到 14日的 09点(UTC)
风速5节,风向东北

TAF: WMKM 131700Z 1318/1418 04005KT 9999 FEW020 BECMG 1400/1402 24005KT BECMG 1408/1409 05005KT

超过4000个机场的气象观测和天气预报(METAR&TAF报告)。

可查询的气象台以黄色和红色小点在地图上表示。

将鼠标移到小点上方,可查看气象台名称。

然后点击查看天气观测和预报。

如需切换地图:点击带黑十字的绿色按钮放大地图;点击带横线的绿色按钮缩小地图;或者点击绿色箭头查看邻近地区的地图。


METAR-TAF: